Concordia, Argentina
Current Conditions -  °F | °C
As of 5:00 PM on Monday 20 Oct 2014 (Local Time) from SUSO Reporting Station
Clear Clear  
Wind Chill: 25°   Ceiling: Unl
Heat Index: 26°   Visibility: 6mi
Dew Point: 11°   Wind: 6mph
Humidity: 41%   Direction: 150°SSE
Pressure: 30.09"   Gusts: NA
Location:  31.39°S, 58.03°W
Report Text: SUSO 202000Z 15005KT CAVOK 25/11 Q1019
Loading
Personal Weather Stations






























Interactive Weather Map
Tropical Storm Tracking
New forecast layout! Learn more

10-Day Weather Forecast

Advertisements
Track Severe Weather on mobile